Time;durP1;ratioP1;P1;durP2;ratioP2;P2;SDS_P1;SDS_P2;PMS_P1;PMS_P2;Temp;Humidity;BMP_temperature;BMP_pressure;BME280_temperature;BME280_humidity;BME280_pressure;Samples;Min_cycle;Max_cycle;Signal;HPM_P1;HPM_P2
2022/10/30 00:00:21;;;;;;;22.87;19.20;;;16.70;49.60;;;;;;5011994;28;20441;-43
2022/10/30 00:02:47;;;;;;;30.13;21.80;;;16.70;49.60;;;;;;5011796;28;20306;-42
2022/10/30 00:05:14;;;;;;;23.88;17.55;;;16.70;49.60;;;;;;5014006;28;20456;-42
2022/10/30 00:07:40;;;;;;;27.52;17.05;;;16.70;49.70;;;;;;5014973;28;20182;-43
2022/10/30 00:10:06;;;;;;;24.50;17.70;;;16.70;49.60;;;;;;5015414;28;20194;-43
2022/10/30 00:12:32;;;;;;;22.75;18.30;;;16.70;49.40;;;;;;5015373;28;20406;-43
2022/10/30 00:14:58;;;;;;;28.53;17.67;;;16.70;49.30;;;;;;5015369;28;20225;-43
2022/10/30 00:17:24;;;;;;;20.87;18.63;;;16.70;49.20;;;;;;5014939;28;20440;-43
2022/10/30 00:19:49;;;;;;;26.83;18.60;;;16.70;49.20;;;;;;5015280;28;20194;-43
2022/10/30 00:22:15;;;;;;;23.07;17.60;;;16.60;49.20;;;;;;5015211;28;20179;-43
2022/10/30 00:24:41;;;;;;;28.00;17.37;;;16.60;49.20;;;;;;5015147;28;20201;-42
2022/10/30 00:27:07;;;;;;;28.77;17.93;;;16.60;49.20;;;;;;5014586;28;20413;-42
2022/10/30 00:29:33;;;;;;;26.90;20.60;;;16.60;49.20;;;;;;4997443;28;20789;-43
2022/10/30 00:31:58;;;;;;;23.37;17.73;;;16.50;49.50;;;;;;5014998;28;20217;-42
2022/10/30 00:34:24;;;;;;;27.60;22.13;;;16.50;49.50;;;;;;5015111;28;20306;-42
2022/10/30 00:36:50;;;;;;;26.13;19.07;;;16.50;49.50;;;;;;5014616;28;20417;-43
2022/10/30 00:39:16;;;;;;;27.83;20.43;;;16.50;49.60;;;;;;5014782;28;20644;-42
2022/10/30 00:41:41;;;;;;;29.70;19.50;;;16.40;49.50;;;;;;5014804;28;20181;-43
2022/10/30 00:44:45;;;;;;;28.17;19.53;;;16.50;49.50;;;;;;5014696;28;20186;-42
2022/10/30 00:47:25;;;;;;;36.80;20.63;;;16.40;49.60;;;;;;5014166;28;20177;-43
2022/10/30 00:50:07;;;;;;;27.77;21.98;;;16.50;49.80;;;;;;5014631;28;20281;-43
2022/10/30 00:52:41;;;;;;;27.60;20.52;;;16.40;50.00;;;;;;5014705;28;20209;-43
2022/10/30 00:55:12;;;;;;;25.75;20.70;;;16.40;50.10;;;;;;5014648;28;20172;-43
2022/10/30 00:57:39;;;;;;;23.77;18.38;;;16.40;50.10;;;;;;5014121;28;20170;-43
2022/10/30 01:00:07;;;;;;;31.25;19.85;;;16.40;50.00;;;;;;5014673;28;20226;-43
2022/10/30 01:02:33;;;;;;;25.35;17.58;;;16.40;49.80;;;;;;4997044;28;20625;-43
2022/10/30 01:04:59;;;;;;;23.80;17.83;;;16.40;49.90;;;;;;5014367;28;20222;-43
2022/10/30 01:07:25;;;;;;;22.60;16.83;;;16.30;49.80;;;;;;5013861;28;20464;-43
2022/10/30 01:09:51;;;;;;;22.70;16.15;;;16.40;49.60;;;;;;5014128;28;20191;-43
2022/10/30 01:12:17;;;;;;;24.33;18.00;;;16.30;49.60;;;;;;5014256;28;20170;-43
2022/10/30 01:14:50;;;;;;;22.23;17.30;;;16.30;49.50;;;;;;5014210;28;20269;-43
2022/10/30 01:17:41;;;;;;;25.75;17.27;;;16.30;49.40;;;;;;5012610;28;20159;-42
2022/10/30 01:20:43;;;;;;;22.92;17.30;;;16.30;49.20;;;;;;5014153;28;20286;-43
2022/10/30 01:23:29;;;;;;;27.10;17.63;;;16.20;49.10;;;;;;5013988;28;20162;-43
2022/10/30 01:26:13;;;;;;;25.60;16.67;;;16.20;49.20;;;;;;5013418;28;20684;-42
2022/10/30 01:29:05;;;;;;;22.02;17.60;;;16.20;49.20;;;;;;5014073;28;20155;-43
2022/10/30 01:31:40;;;;;;;21.38;13.68;;;16.10;49.30;;;;;;5013915;28;20162;-43
2022/10/30 01:34:18;;;;;;;21.60;17.10;;;16.00;49.40;;;;;;5013849;28;20641;-42
2022/10/30 01:36:59;;;;;;;27.02;16.75;;;16.00;49.30;;;;;;5013388;28;20174;-43
2022/10/30 01:39:34;;;;;;;21.38;14.90;;;16.00;49.30;;;;;;5013624;28;20202;-43
2022/10/30 01:42:27;;;;;;;22.25;15.73;;;16.00;49.40;;;;;;5013726;28;20174;-42
2022/10/30 01:44:53;;;;;;;21.05;14.75;;;15.90;49.30;;;;;;5013078;28;20198;-42
2022/10/30 01:47:55;;;;;;;19.30;15.07;;;15.90;49.30;;;;;;5013169;28;20665;-42
2022/10/30 01:50:37;;;;;;;25.05;14.35;;;15.90;49.20;;;;;;4973162;28;20202;-43
2022/10/30 01:53:19;;;;;;;19.15;15.40;;;15.90;49.30;;;;;;5013594;28;20623;-43
2022/10/30 01:56:13;;;;;;;23.40;16.48;;;15.90;49.40;;;;;;5012881;28;20171;-42
2022/10/30 01:58:50;;;;;;;20.50;14.25;;;15.80;49.30;;;;;;5013229;28;20626;-43
2022/10/30 02:01:17;;;;;;;23.42;14.50;;;15.80;49.50;;;;;;5013485;28;20185;-42
2022/10/30 02:03:44;;;;;;;18.98;14.25;;;15.70;49.50;;;;;;5013579;28;20543;-43
2022/10/30 02:06:10;;;;;;;20.33;15.20;;;15.70;49.40;;;;;;5012708;28;20542;-43
2022/10/30 02:08:36;;;;;;;19.97;15.77;;;15.70;49.40;;;;;;5012905;28;20253;-43
2022/10/30 02:11:03;;;;;;;17.20;13.30;;;15.70;49.40;;;;;;5013155;28;20226;-43
2022/10/30 02:13:29;;;;;;;17.38;14.35;;;15.70;49.40;;;;;;5013188;28;20401;-43
2022/10/30 02:15:56;;;;;;;19.43;14.60;;;15.60;49.30;;;;;;5012621;28;20729;-42
2022/10/30 02:18:23;;;;;;;19.48;14.25;;;15.60;49.20;;;;;;5013345;28;20464;-42
2022/10/30 02:20:49;;;;;;;17.70;14.65;;;15.60;49.10;;;;;;5013203;28;20202;-42
2022/10/30 02:23:17;;;;;;;21.57;16.30;;;15.60;49.10;;;;;;5013068;28;20224;-43
2022/10/30 02:25:44;;;;;;;23.75;15.27;;;15.60;49.40;;;;;;5012201;28;20210;-42
2022/10/30 02:28:10;;;;;;;19.63;15.18;;;15.60;49.50;;;;;;5012664;28;20658;-42
2022/10/30 02:30:37;;;;;;;20.00;15.40;;;15.50;49.40;;;;;;5013116;28;20624;-43
2022/10/30 02:33:02;;;;;;;23.30;14.40;;;15.50;49.50;;;;;;5012936;28;20178;-42
2022/10/30 02:35:29;;;;;;;23.97;15.23;;;15.50;49.40;;;;;;5012953;28;20558;-42
2022/10/30 02:37:54;;;;;;;18.83;13.00;;;15.50;49.40;;;;;;5012580;28;20231;-42
2022/10/30 02:40:20;;;;;;;20.00;14.63;;;15.50;49.50;;;;;;5012565;28;20297;-42
2022/10/30 02:42:53;;;;;;;23.43;14.80;;;15.50;49.50;;;;;;5012700;28;20201;-43
2022/10/30 02:45:19;;;;;;;18.98;14.70;;;15.50;49.50;;;;;;5012918;28;20195;-43
2022/10/30 02:47:45;;;;;;;18.15;15.00;;;15.50;50.20;;;;;;5012059;28;20178;-42
2022/10/30 02:50:11;;;;;;;17.93;13.73;;;15.50;49.30;;;;;;5012556;28;20199;-42
2022/10/30 02:52:36;;;;;;;18.10;14.13;;;15.50;49.30;;;;;;5012796;28;20175;-43
2022/10/30 02:55:03;;;;;;;25.10;19.27;;;15.40;49.40;;;;;;5012568;28;20178;-42
2022/10/30 02:57:28;;;;;;;20.45;13.68;;;15.50;49.70;;;;;;5011934;28;20178;-42
2022/10/30 02:59:54;;;;;;;20.83;13.67;;;15.50;49.80;;;;;;5012334;28;20202;-42
2022/10/30 03:02:20;;;;;;;28.20;15.13;;;15.50;49.90;;;;;;5012480;28;20485;-42
2022/10/30 03:04:46;;;;;;;22.33;14.73;;;15.50;49.80;;;;;;5012374;28;20226;-43
2022/10/30 03:07:11;;;;;;;20.27;14.40;;;15.50;50.00;;;;;;5011824;28;20654;-43
2022/10/30 03:09:37;;;;;;;19.57;15.23;;;15.50;49.90;;;;;;5012118;28;20191;-43
2022/10/30 03:12:03;;;;;;;21.80;15.37;;;15.50;50.10;;;;;;5012517;28;20174;-43
2022/10/30 03:14:29;;;;;;;21.10;14.80;;;15.50;50.10;;;;;;5012350;28;20581;-43
2022/10/30 03:16:54;;;;;;;21.37;13.67;;;15.50;50.10;;;;;;5011681;28;20448;-42
2022/10/30 03:19:20;;;;;;;17.67;13.10;;;15.50;50.20;;;;;;5012341;28;20198;-42
2022/10/30 03:21:46;;;;;;;17.27;14.27;;;15.60;50.20;;;;;;5012247;28;20253;-42
2022/10/30 03:24:12;;;;;;;17.60;14.00;;;15.60;50.20;;;;;;5012123;28;20205;-42
2022/10/30 03:26:38;;;;;;;20.17;14.17;;;15.60;50.20;;;;;;5011522;28;20170;-42
2022/10/30 03:29:03;;;;;;;19.37;13.63;;;15.70;50.30;;;;;;5012070;28;20436;-43
2022/10/30 03:31:30;;;;;;;18.50;13.07;;;15.70;50.50;;;;;;5012385;28;20174;-42
2022/10/30 03:33:56;;;;;;;21.83;13.68;;;15.70;50.90;;;;;;5012332;28;20261;-43
2022/10/30 03:36:23;;;;;;;17.60;13.70;;;15.60;50.70;;;;;;5011572;28;20206;-43
2022/10/30 03:38:49;;;;;;;18.75;12.30;;;15.60;50.60;;;;;;5011952;28;20218;-42
2022/10/30 03:41:15;;;;;;;14.40;12.00;;;15.60;50.50;;;;;;5016049;28;20580;-42
2022/10/30 03:43:40;;;;;;;18.03;13.17;;;15.60;50.40;;;;;;5016015;28;20649;-43
2022/10/30 03:46:08;;;;;;;20.20;12.23;;;15.70;50.50;;;;;;5015477;28;20206;-43
2022/10/30 03:48:33;;;;;;;20.80;14.63;;;15.70;50.50;;;;;;5016399;28;20178;-43
2022/10/30 03:50:59;;;;;;;17.80;14.73;;;15.70;50.40;;;;;;5015990;28;20177;-43
2022/10/30 03:53:27;;;;;;;18.98;13.98;;;15.70;50.40;;;;;;5016541;28;20530;-43
2022/10/30 03:55:57;;;;;;;22.00;13.02;;;15.80;50.40;;;;;;5015672;28;20186;-42
2022/10/30 03:58:22;;;;;;;14.80;13.20;;;15.80;50.60;;;;;;5015875;28;20639;-43
2022/10/30 04:00:48;;;;;;;22.50;14.53;;;15.80;50.60;;;;;;5015502;28;20257;-42
2022/10/30 04:03:14;;;;;;;16.90;13.60;;;15.80;50.70;;;;;;5015587;28;20174;-42
2022/10/30 04:05:40;;;;;;;21.77;13.00;;;15.80;50.70;;;;;;5014905;28;20198;-42
2022/10/30 04:08:11;;;;;;;17.70;13.13;;;15.80;50.70;;;;;;5015504;28;20508;-42
2022/10/30 04:10:36;;;;;;;16.58;13.20;;;15.80;50.70;;;;;;5015396;28;20242;-43
2022/10/30 04:13:06;;;;;;;18.10;13.90;;;15.80;50.60;;;;;;5015446;28;20559;-43
2022/10/30 04:15:33;;;;;;;21.55;12.70;;;15.80;50.60;;;;;;5015081;28;20193;-42
2022/10/30 04:17:59;;;;;;;18.02;13.30;;;15.80;50.50;;;;;;5015353;28;20653;-42
2022/10/30 04:20:26;;;;;;;18.60;13.70;;;15.80;50.50;;;;;;5015199;28;20198;-42
2022/10/30 04:22:57;;;;;;;17.08;13.90;;;15.80;50.60;;;;;;5015190;28;20186;-42
2022/10/30 04:25:23;;;;;;;20.23;14.27;;;15.80;50.60;;;;;;5015298;28;20206;-42
2022/10/30 04:27:49;;;;;;;17.45;11.88;;;15.80;50.50;;;;;;5014652;28;20201;-42
2022/10/30 04:30:15;;;;;;;17.83;12.53;;;15.70;50.60;;;;;;5015097;28;20210;-43
2022/10/30 04:32:52;;;;;;;18.10;12.37;;;15.70;50.50;;;;;;5015059;28;20509;-42
2022/10/30 04:35:20;;;;;;;17.60;12.60;;;15.80;50.50;;;;;;4997590;28;20781;-43
2022/10/30 04:38:11;;;;;;;15.43;12.20;;;15.70;50.60;;;;;;5014438;28;20175;-43
2022/10/30 04:40:41;;;;;;;16.30;12.80;;;15.70;50.50;;;;;;5015242;28;20214;-42
2022/10/30 04:43:09;;;;;;;21.77;15.68;;;15.60;50.60;;;;;;5015123;28;20240;-43
2022/10/30 04:45:36;;;;;;;21.52;14.25;;;15.60;50.60;;;;;;5014460;28;20359;-43
2022/10/30 04:48:04;;;;;;;16.63;12.40;;;15.60;50.70;;;;;;5014993;28;20217;-44
2022/10/30 04:50:31;;;;;;;17.00;13.45;;;15.60;50.60;;;;;;5014678;28;20226;-44
2022/10/30 04:53:06;;;;;;;21.35;14.48;;;15.60;50.60;;;;;;5014706;28;20182;-43
2022/10/30 04:55:32;;;;;;;17.73;12.13;;;15.60;50.70;;;;;;5014488;28;20173;-42
2022/10/30 04:57:59;;;;;;;17.23;12.50;;;15.60;50.80;;;;;;5014593;28;20193;-42
2022/10/30 05:00:26;;;;;;;18.83;14.05;;;15.50;50.90;;;;;;5014507;28;20190;-43
2022/10/30 05:02:51;;;;;;;21.00;14.65;;;15.50;50.80;;;;;;5014541;28;20187;-42
2022/10/30 05:05:17;;;;;;;19.50;16.57;;;15.50;50.80;;;;;;5014449;28;20206;-42
2022/10/30 05:07:43;;;;;;;22.53;15.20;;;15.50;50.90;;;;;;5013861;28;20438;-43
2022/10/30 05:10:17;;;;;;;17.83;13.57;;;15.40;50.80;;;;;;5014420;28;20196;-43
2022/10/30 05:12:44;;;;;;;16.23;11.77;;;15.50;50.90;;;;;;5014535;28;20178;-43
2022/10/30 05:15:11;;;;;;;15.30;13.70;;;15.40;50.80;;;;;;5014175;28;20638;-44
2022/10/30 05:17:37;;;;;;;14.38;12.45;;;15.40;50.70;;;;;;5013659;28;20217;-43
2022/10/30 05:20:04;;;;;;;20.03;15.60;;;15.40;50.80;;;;;;5014128;28;20670;-41
2022/10/30 05:22:30;;;;;;;16.88;14.80;;;15.40;50.80;;;;;;5014149;28;20412;-41
2022/10/30 05:24:56;;;;;;;22.07;14.77;;;15.40;50.80;;;;;;5014191;28;20210;-41
2022/10/30 05:27:21;;;;;;;17.43;13.13;;;15.40;50.80;;;;;;5013517;28;20844;-42
2022/10/30 05:29:47;;;;;;;17.10;12.30;;;15.40;50.90;;;;;;5013861;28;20198;-42
2022/10/30 05:32:13;;;;;;;15.27;12.60;;;15.40;51.00;;;;;;5013927;28;20167;-44
2022/10/30 05:34:38;;;;;;;16.60;13.50;;;15.40;51.10;;;;;;5013920;28;20189;-42
2022/10/30 05:37:04;;;;;;;14.83;13.10;;;15.40;51.10;;;;;;5013245;28;20186;-43
2022/10/30 05:39:30;;;;;;;17.00;12.93;;;15.40;51.10;;;;;;5013564;28;20214;-43
2022/10/30 05:41:55;;;;;;;20.10;14.43;;;15.40;51.20;;;;;;5013938;28;20193;-43
2022/10/30 05:44:21;;;;;;;19.00;13.37;;;15.40;51.20;;;;;;5013774;28;20198;-44
2022/10/30 05:46:47;;;;;;;19.33;13.40;;;15.40;51.10;;;;;;5013184;28;20246;-41
2022/10/30 05:49:13;;;;;;;16.67;11.80;;;15.40;51.20;;;;;;5013551;28;20186;-43
2022/10/30 05:51:38;;;;;;;23.67;13.87;;;15.50;51.20;;;;;;5013509;28;20548;-42
2022/10/30 05:54:04;;;;;;;17.37;12.50;;;15.50;51.20;;;;;;5013436;28;20225;-42
2022/10/30 05:56:30;;;;;;;14.93;11.03;;;15.50;51.10;;;;;;5012943;28;20257;-43
2022/10/30 05:58:56;;;;;;;18.90;13.70;;;15.50;51.10;;;;;;5013577;28;20479;-43
2022/10/30 06:01:21;;;;;;;16.03;12.80;;;15.60;51.00;;;;;;5013421;28;20593;-44
2022/10/30 06:03:47;;;;;;;22.57;13.17;;;15.50;51.00;;;;;;5012858;28;20171;-42
2022/10/30 06:06:13;;;;;;;16.83;11.47;;;15.60;51.00;;;;;;4995244;28;20233;-42
2022/10/30 06:08:38;;;;;;;20.10;13.93;;;15.60;51.00;;;;;;5013149;28;20706;-43
2022/10/30 06:11:04;;;;;;;18.13;12.00;;;15.60;51.20;;;;;;5013345;28;20210;-43
2022/10/30 06:13:30;;;;;;;16.20;12.90;;;15.60;51.40;;;;;;5013227;28;20201;-43
2022/10/30 06:15:56;;;;;;;18.23;10.97;;;15.60;52.20;;;;;;5012618;28;20706;-42
2022/10/30 06:18:22;;;;;;;15.53;12.57;;;15.60;51.50;;;;;;4995469;28;20175;-43
2022/10/30 06:20:48;;;;;;;17.10;12.95;;;15.60;51.40;;;;;;5013186;28;20438;-42
2022/10/30 06:23:14;;;;;;;19.00;14.40;;;15.70;51.50;;;;;;5012939;28;20186;-40
2022/10/30 06:25:39;;;;;;;17.30;14.03;;;15.70;51.50;;;;;;5012301;28;21023;-42
2022/10/30 06:28:05;;;;;;;20.67;15.10;;;15.70;51.50;;;;;;5013046;28;20463;-43
2022/10/30 06:30:32;;;;;;;25.43;14.60;;;15.70;51.50;;;;;;5012854;28;20414;-43
2022/10/30 06:32:59;;;;;;;18.52;14.57;;;15.80;51.50;;;;;;5012869;28;20409;-42
2022/10/30 06:35:25;;;;;;;16.60;13.68;;;15.80;51.60;;;;;;5012763;28;20193;-43
2022/10/30 06:37:53;;;;;;;17.95;13.68;;;15.80;51.80;;;;;;5012213;28;20194;-43
2022/10/30 06:40:19;;;;;;;14.82;12.90;;;15.80;51.80;;;;;;5012508;28;20218;-44
2022/10/30 06:42:47;;;;;;;16.15;12.85;;;15.90;51.80;;;;;;5012744;28;20171;-44
2022/10/30 06:45:14;;;;;;;20.33;14.50;;;16.00;51.80;;;;;;5012759;28;20214;-45
2022/10/30 06:47:40;;;;;;;17.00;12.88;;;16.10;51.90;;;;;;5012089;28;20171;-43
2022/10/30 06:50:08;;;;;;;18.70;13.53;;;16.20;51.90;;;;;;5012519;28;20670;-44
2022/10/30 06:52:35;;;;;;;21.88;14.60;;;16.30;52.00;;;;;;5012525;28;20886;-42
2022/10/30 06:55:01;;;;;;;19.35;14.40;;;16.40;52.00;;;;;;5012570;28;20179;-43
2022/10/30 06:57:27;;;;;;;17.52;12.88;;;16.50;52.10;;;;;;5011900;28;20524;-44
2022/10/30 06:59:53;;;;;;;17.33;13.80;;;16.50;52.00;;;;;;5012308;28;20261;-43
2022/10/30 07:02:18;;;;;;;16.50;13.47;;;16.60;52.00;;;;;;5012486;28;20471;-43
2022/10/30 07:04:47;;;;;;;20.07;13.07;;;16.60;51.90;;;;;;5012409;28;20190;-43
2022/10/30 07:07:14;;;;;;;20.92;15.05;;;16.70;52.80;;;;;;4994024;28;20166;-43
2022/10/30 07:09:40;;;;;;;14.85;13.00;;;16.70;52.20;;;;;;5012136;28;20546;-41
2022/10/30 07:12:06;;;;;;;18.52;13.30;;;16.80;52.20;;;;;;5012435;28;20257;-43
2022/10/30 07:14:33;;;;;;;14.65;13.13;;;16.80;52.20;;;;;;5011389;28;20178;-42
2022/10/30 07:16:58;;;;;;;22.27;14.75;;;16.80;52.30;;;;;;5011606;28;20231;-43
2022/10/30 07:19:24;;;;;;;17.30;14.23;;;16.80;52.20;;;;;;5012081;28;20198;-44
2022/10/30 07:21:50;;;;;;;18.60;14.43;;;16.90;52.60;;;;;;5012192;28;20175;-43
2022/10/30 07:24:15;;;;;;;18.90;15.23;;;16.90;52.60;;;;;;5012330;28;20178;-44
2022/10/30 07:26:41;;;;;;;21.90;16.30;;;17.00;53.00;;;;;;5011641;28;20167;-44
2022/10/30 07:29:07;;;;;;;24.47;15.13;;;17.00;53.00;;;;;;5012077;28;20578;-44
2022/10/30 07:31:33;;;;;;;22.13;15.90;;;17.10;53.00;;;;;;5012170;28;20252;-44
2022/10/30 07:33:59;;;;;;;20.33;16.30;;;17.20;53.60;;;;;;5012037;28;20516;-45
2022/10/30 07:36:24;;;;;;;19.70;16.70;;;17.40;53.10;;;;;;5011781;28;20453;-44
2022/10/30 07:38:51;;;;;;;21.63;16.47;;;17.60;53.00;;;;;;5011874;28;20196;-44
2022/10/30 07:41:17;;;;;;;22.10;15.35;;;17.70;52.90;;;;;;5012447;28;20213;-45
2022/10/30 07:43:44;;;;;;;19.55;14.60;;;17.90;52.80;;;;;;5012064;28;20237;-44
2022/10/30 07:46:10;;;;;;;26.75;18.05;;;18.10;52.60;;;;;;5011590;28;20221;-44
2022/10/30 07:48:35;;;;;;;21.33;16.87;;;18.20;52.40;;;;;;5011903;28;20171;-44
2022/10/30 07:51:01;;;;;;;18.80;15.67;;;18.30;52.10;;;;;;5011891;28;20506;-45
2022/10/30 07:53:27;;;;;;;19.20;15.77;;;18.40;51.80;;;;;;5011961;28;20170;-43
2022/10/30 07:55:52;;;;;;;19.77;15.07;;;18.40;51.70;;;;;;5011245;28;20191;-45
2022/10/30 07:58:18;;;;;;;20.53;16.50;;;18.40;51.70;;;;;;5011875;28;20175;-44
2022/10/30 08:00:44;;;;;;;22.23;15.77;;;18.40;51.60;;;;;;5012022;28;20205;-45
2022/10/30 08:03:11;;;;;;;23.20;16.87;;;18.40;51.40;;;;;;5012092;28;20178;-45
2022/10/30 08:05:37;;;;;;;19.60;15.50;;;18.50;51.40;;;;;;5011393;28;20213;-45
2022/10/30 08:08:03;;;;;;;19.10;14.73;;;18.50;51.50;;;;;;5011898;28;20183;-47
2022/10/30 08:10:29;;;;;;;24.38;17.95;;;18.50;51.60;;;;;;5011758;28;20187;-45
2022/10/30 08:12:55;;;;;;;21.43;16.17;;;18.60;51.40;;;;;;5011991;28;20181;-46
2022/10/30 08:15:21;;;;;;;21.15;16.08;;;18.80;51.10;;;;;;5011972;28;20175;-45
2022/10/30 08:17:48;;;;;;;21.23;16.92;;;18.90;51.10;;;;;;5011347;28;20182;-45
2022/10/30 08:20:16;;;;;;;21.80;16.50;;;18.90;50.60;;;;;;5011686;28;20269;-44
2022/10/30 08:22:55;;;;;;;21.50;16.85;;;19.00;50.70;;;;;;5011845;28;20543;-44
2022/10/30 08:25:24;;;;;;;23.80;16.67;;;19.10;50.70;;;;;;5012490;28;20194;-46
2022/10/30 08:27:57;;;;;;;19.67;15.45;;;19.30;50.60;;;;;;5014694;28;20178;-44
2022/10/30 08:30:25;;;;;;;17.63;14.27;;;19.60;50.80;;;;;;5014968;28;20697;-45
2022/10/30 08:32:50;;;;;;;22.55;17.08;;;20.20;50.00;;;;;;5015034;28;20185;-43
2022/10/30 08:35:16;;;;;;;21.50;15.63;;;20.60;49.30;;;;;;5015191;28;20171;-46
2022/10/30 08:37:42;;;;;;;26.03;15.70;;;20.80;48.40;;;;;;5014344;28;20174;-45
2022/10/30 08:40:09;;;;;;;18.48;15.48;;;21.00;48.20;;;;;;5014698;28;20460;-45
2022/10/30 08:42:35;;;;;;;17.45;15.20;;;21.20;47.50;;;;;;5015098;28;20182;-46
2022/10/30 08:45:01;;;;;;;22.77;14.83;;;21.50;47.10;;;;;;5014621;28;20580;-45
2022/10/30 08:47:27;;;;;;;22.00;16.77;;;21.90;45.90;;;;;;5014313;28;20433;-46
2022/10/30 08:49:53;;;;;;;19.60;14.27;;;22.40;44.70;;;;;;5014836;28;20422;-45
2022/10/30 08:52:19;;;;;;;21.50;13.93;;;22.80;44.20;;;;;;5014670;28;20174;-46
2022/10/30 08:54:44;;;;;;;20.70;14.93;;;23.00;43.40;;;;;;5014553;28;20256;-45
2022/10/30 08:57:10;;;;;;;18.10;14.57;;;23.10;43.00;;;;;;5013960;28;20181;-46
2022/10/30 08:59:36;;;;;;;17.57;14.67;;;23.10;42.20;;;;;;5014382;28;20199;-46
2022/10/30 09:02:01;;;;;;;20.10;15.20;;;23.20;40.90;;;;;;5014418;28;20213;-46
2022/10/30 09:04:27;;;;;;;21.00;14.47;;;23.20;42.10;;;;;;5014287;28;20198;-45
2022/10/30 09:06:53;;;;;;;17.93;14.50;;;23.10;42.10;;;;;;5013783;28;20248;-46
2022/10/30 09:09:19;;;;;;;16.30;13.47;;;23.10;42.90;;;;;;5014202;28;20253;-45
2022/10/30 09:11:47;;;;;;;20.37;15.53;;;23.20;42.70;;;;;;5014171;28;20166;-45
2022/10/30 09:14:13;;;;;;;17.57;13.13;;;23.30;42.40;;;;;;5014104;28;20538;-45
2022/10/30 09:16:39;;;;;;;17.57;14.17;;;23.30;42.40;;;;;;5013630;28;20504;-45
2022/10/30 09:19:04;;;;;;;15.77;14.00;;;23.40;41.30;;;;;;5014267;28;20237;-45
2022/10/30 09:21:30;;;;;;;14.73;12.90;;;23.60;39.70;;;;;;5014204;28;20166;-45
2022/10/30 09:23:56;;;;;;;18.10;14.57;;;23.60;39.60;;;;;;5014014;28;20289;-45
2022/10/30 09:26:22;;;;;;;18.60;13.80;;;23.50;40.60;;;;;;5013355;28;20257;-44
2022/10/30 09:28:48;;;;;;;19.83;13.50;;;23.40;40.20;;;;;;5013897;28;20195;-43
2022/10/30 09:31:13;;;;;;;19.93;14.07;;;23.30;40.40;;;;;;5014194;28;20186;-44
2022/10/30 09:33:39;;;;;;;19.80;13.60;;;23.20;40.50;;;;;;5014075;28;20471;-45
2022/10/30 09:36:05;;;;;;;16.43;13.60;;;23.20;40.40;;;;;;5013516;28;20622;-44
2022/10/30 09:38:31;;;;;;;16.80;13.93;;;23.20;41.20;;;;;;5012853;28;20174;-45
2022/10/30 09:41:41;;;;;;;18.97;14.20;;;23.10;41.30;;;;;;5013587;28;20437;-44
2022/10/30 09:44:45;;;;;;;19.30;15.03;;;23.20;41.20;;;;;;5013886;28;20181;-44
2022/10/30 09:47:22;;;;;;;16.60;13.23;;;23.20;41.70;;;;;;4952324;29;20494;-44
2022/10/30 09:50:15;;;;;;;20.67;14.33;;;23.30;41.80;;;;;;4952864;29;20434;-45
2022/10/30 09:52:43;;;;;;;18.17;14.60;;;23.30;41.70;;;;;;4952878;29;20812;-44
2022/10/30 09:55:21;;;;;;;18.20;14.50;;;23.40;41.60;;;;;;4953048;29;20409;-45
2022/10/30 09:58:01;;;;;;;20.90;14.47;;;23.80;41.30;;;;;;4952236;29;21027;-44
2022/10/30 10:00:36;;;;;;;17.23;14.00;;;24.20;40.60;;;;;;4952703;29;20424;-44
2022/10/30 10:03:26;;;;;;;19.47;14.33;;;24.70;40.30;;;;;;4952813;29;20700;-44
2022/10/30 10:05:54;;;;;;;17.67;13.67;;;24.70;39.10;;;;;;4952132;29;20495;-45
2022/10/30 10:08:36;;;;;;;16.90;13.60;;;24.80;38.30;;;;;;4952637;29;20413;-45
2022/10/30 10:11:44;;;;;;;15.60;13.90;;;24.70;37.70;;;;;;4952624;29;20840;-45
2022/10/30 10:14:13;;;;;;;15.50;13.70;;;24.50;37.90;;;;;;4931579;29;20424;-44
2022/10/30 10:16:41;;;;;;;19.33;13.57;;;24.30;39.20;;;;;;4951886;29;20444;-44
2022/10/30 10:19:13;;;;;;;17.67;13.47;;;24.30;38.80;;;;;;5011805;28;20429;-45
2022/10/30 10:22:02;;;;;;;17.87;14.30;;;24.40;39.00;;;;;;5011686;28;20409;-44
2022/10/30 10:24:37;;;;;;;16.87;14.03;;;24.40;39.10;;;;;;5012999;28;20451;-44
2022/10/30 10:27:14;;;;;;;17.17;12.53;;;24.30;39.10;;;;;;5012211;28;20949;-44
2022/10/30 10:29:48;;;;;;;17.00;13.93;;;24.20;39.00;;;;;;5012777;28;20913;-44
2022/10/30 10:32:59;;;;;;;16.07;13.43;;;24.20;39.70;;;;;;5012685;28;20401;-45
2022/10/30 10:35:43;;;;;;;19.13;13.00;;;24.40;38.80;;;;;;5009677;28;20426;-44
2022/10/30 10:38:37;;;;;;;14.93;13.00;;;24.50;39.00;;;;;;5013021;28;20413;-44
2022/10/30 10:41:24;;;;;;;21.33;14.10;;;24.60;39.40;;;;;;5012732;28;20421;-44
2022/10/30 10:44:28;;;;;;;22.13;14.63;;;24.70;39.80;;;;;;5012921;28;20413;-45
2022/10/30 10:47:00;;;;;;;17.50;13.23;;;24.80;38.70;;;;;;5011933;28;20413;-44
2022/10/30 10:52:01;;;;;;;14.53;13.13;;;25.10;38.50;;;;;;5011049;28;20469;-44
2022/10/30 10:54:52;;;;;;;19.30;14.00;;;25.10;38.60;;;;;;5012825;28;20421;-43
2022/10/30 10:57:36;;;;;;;17.00;13.33;;;25.10;38.60;;;;;;4994617;28;20414;-44
2022/10/30 11:00:22;;;;;;;15.80;13.63;;;25.00;37.80;;;;;;5012749;28;20825;-44
2022/10/30 11:03:17;;;;;;;16.80;13.80;;;25.00;38.80;;;;;;5012250;28;20436;-44
2022/10/30 11:05:56;;;;;;;19.73;14.03;;;25.10;39.10;;;;;;5012044;28;20782;-44
2022/10/30 11:08:31;;;;;;;18.33;14.20;;;25.30;38.20;;;;;;5012541;28;20397;-43
2022/10/30 11:10:59;;;;;;;13.93;11.67;;;25.40;38.50;;;;;;5012973;28;20475;-43
2022/10/30 11:13:35;;;;;;;15.80;13.50;;;25.50;39.00;;;;;;5012711;28;20408;-44
2022/10/30 11:16:00;;;;;;;15.53;13.80;;;25.70;37.90;;;;;;5012005;28;20397;-43
2022/10/30 11:18:26;;;;;;;16.50;13.60;;;25.80;37.80;;;;;;5012687;28;20417;-44
2022/10/30 11:21:16;;;;;;;17.73;14.67;;;25.90;38.00;;;;;;5012454;28;20269;-43
2022/10/30 11:23:44;;;;;;;15.27;11.60;;;26.10;37.90;;;;;;5012557;28;20170;-43
2022/10/30 11:26:31;;;;;;;17.00;12.40;;;26.20;38.60;;;;;;5011790;28;20504;-43
2022/10/30 11:29:17;;;;;;;18.17;11.80;;;26.40;36.60;;;;;;5012446;28;20413;-43
2022/10/30 11:31:43;;;;;;;17.20;13.13;;;26.50;36.90;;;;;;5012391;28;20456;-43
2022/10/30 11:34:16;;;;;;;13.33;11.97;;;26.50;37.10;;;;;;5012408;28;20404;-44
2022/10/30 11:36:46;;;;;;;17.60;14.00;;;26.60;36.30;;;;;;5011908;28;20413;-43
2022/10/30 11:39:21;;;;;;;16.57;12.97;;;26.60;35.80;;;;;;5012668;28;20406;-44
2022/10/30 11:42:13;;;;;;;15.00;12.20;;;26.70;36.40;;;;;;5012395;28;20401;-44
2022/10/30 11:44:52;;;;;;;18.70;14.73;;;26.70;35.90;;;;;;5012196;28;20453;-44
2022/10/30 11:47:37;;;;;;;17.27;13.20;;;26.90;35.70;;;;;;5011646;28;20432;-45
2022/10/30 11:50:06;;;;;;;17.20;13.00;;;27.40;35.80;;;;;;5012021;28;20437;-45
2022/10/30 11:52:39;;;;;;;18.80;12.10;;;27.90;34.80;;;;;;5012203;28;20413;-44
2022/10/30 11:55:18;;;;;;;18.37;13.23;;;28.40;33.40;;;;;;5012032;28;20504;-44
2022/10/30 11:57:47;;;;;;;18.90;13.53;;;28.70;33.40;;;;;;5011473;28;20390;-44
2022/10/30 12:00:21;;;;;;;20.97;13.13;;;28.50;33.40;;;;;;5012461;28;20429;-43
2022/10/30 12:02:50;;;;;;;14.73;12.70;;;28.30;33.90;;;;;;4998096;28;20504;-44
2022/10/30 12:05:35;;;;;;;17.00;12.10;;;28.10;35.40;;;;;;5015614;28;20452;-44
2022/10/30 12:08:07;;;;;;;15.57;13.77;;;27.90;34.30;;;;;;5015660;28;20394;-44
2022/10/30 12:10:40;;;;;;;17.67;13.67;;;27.80;34.30;;;;;;5015553;28;20424;-43
2022/10/30 12:13:11;;;;;;;16.30;13.67;;;27.60;35.50;;;;;;5015697;28;20413;-43
2022/10/30 12:15:37;;;;;;;16.00;12.10;;;27.60;35.20;;;;;;5014834;28;20401;-43
2022/10/30 12:18:07;;;;;;;14.00;11.77;;;27.60;35.40;;;;;;5015557;28;20464;-43
2022/10/30 12:20:36;;;;;;;21.90;14.80;;;27.70;34.70;;;;;;5015735;28;20195;-43
2022/10/30 12:23:19;;;;;;;15.20;13.20;;;27.80;35.40;;;;;;5015173;28;20433;-43
2022/10/30 12:25:50;;;;;;;16.47;12.47;;;27.90;35.20;;;;;;5014991;28;20445;-43
2022/10/30 12:28:22;;;;;;;15.00;12.90;;;28.10;35.90;;;;;;5015291;28;20401;-43
2022/10/30 12:30:53;;;;;;;15.30;13.00;;;28.20;35.00;;;;;;5015174;28;20429;-44
2022/10/30 12:33:33;;;;;;;16.63;13.60;;;28.40;34.40;;;;;;5015173;28;20406;-43
2022/10/30 12:36:04;;;;;;;18.50;12.93;;;28.50;34.10;;;;;;5014540;28;20493;-43
2022/10/30 12:39:02;;;;;;;17.33;13.60;;;28.80;34.50;;;;;;5015237;28;20919;-43
2022/10/30 12:41:39;;;;;;;15.20;13.23;;;29.40;33.00;;;;;;5015760;28;20429;-44
2022/10/30 12:44:32;;;;;;;16.90;12.70;;;29.70;33.70;;;;;;5015873;28;20452;-43
2022/10/30 12:47:25;;;;;;;15.90;13.10;;;30.90;31.80;;;;;;5014607;28;20412;-44